createdAt,value
2023-04-16T00:01:40.334Z,8.48
2023-04-16T00:04:08.240Z,8.44
2023-04-16T00:06:36.575Z,8.44
2023-04-16T00:09:04.467Z,8.48
2023-04-16T00:11:32.227Z,8.49
2023-04-16T00:14:00.070Z,8.43
2023-04-16T00:16:28.146Z,8.40
2023-04-16T00:18:55.979Z,8.38
2023-04-16T00:21:23.756Z,8.31
2023-04-16T00:23:51.558Z,8.24
2023-04-16T00:26:19.662Z,8.15
2023-04-16T00:28:48.027Z,8.08
2023-04-16T00:31:16.119Z,7.99
2023-04-16T00:33:43.972Z,7.91
2023-04-16T00:36:11.677Z,7.93
2023-04-16T00:38:39.522Z,7.95
2023-04-16T00:41:07.248Z,7.90
2023-04-16T00:43:35.078Z,7.88
2023-04-16T00:46:05.834Z,7.90
2023-04-16T00:48:34.606Z,7.90
2023-04-16T00:51:04.996Z,7.89
2023-04-16T00:53:34.192Z,7.89
2023-04-16T00:56:06.339Z,7.87
2023-04-16T00:58:34.945Z,7.87
2023-04-16T01:01:02.755Z,7.81
2023-04-16T01:03:43.405Z,7.77
2023-04-16T01:06:11.775Z,7.66
2023-04-16T01:08:40.173Z,7.55
2023-04-16T01:11:08.235Z,7.46
2023-04-16T01:13:39.368Z,7.41
2023-04-16T01:16:08.932Z,7.40
2023-04-16T01:18:37.545Z,7.42
2023-04-16T01:21:05.609Z,7.43
2023-04-16T01:23:34.254Z,7.42
2023-04-16T01:26:03.454Z,7.42
2023-04-16T01:28:31.355Z,7.42
2023-04-16T01:30:59.130Z,7.41
2023-04-16T01:33:56.500Z,7.40
2023-04-16T01:36:24.651Z,7.33
2023-04-16T01:38:52.402Z,7.25
2023-04-16T01:41:20.324Z,7.21
2023-04-16T01:43:48.109Z,7.22
2023-04-16T01:46:20.578Z,7.23
2023-04-16T01:48:48.995Z,7.25
2023-04-16T01:51:16.857Z,7.25
2023-04-16T01:53:45.839Z,7.28
2023-04-16T01:56:13.848Z,7.24
2023-04-16T01:58:47.126Z,7.20
2023-04-16T02:01:16.176Z,7.19
2023-04-16T02:03:45.335Z,7.19
2023-04-16T02:06:13.721Z,7.16
2023-04-16T02:08:41.927Z,7.17
2023-04-16T02:11:09.663Z,7.22
2023-04-16T02:13:37.565Z,7.30
2023-04-16T02:16:06.239Z,7.35
2023-04-16T02:18:57.435Z,7.36
2023-04-16T02:21:26.089Z,7.32
2023-04-16T02:23:53.853Z,7.26
2023-04-16T02:26:26.657Z,7.19
2023-04-16T02:28:55.285Z,7.12
2023-04-16T02:31:25.640Z,7.06
2023-04-16T02:33:53.428Z,7.07
2023-04-16T02:36:21.728Z,7.10
2023-04-16T02:38:49.512Z,7.09
2023-04-16T02:41:17.400Z,7.10
2023-04-16T02:43:45.389Z,7.10
2023-04-16T02:46:13.262Z,7.09
2023-04-16T02:48:41.725Z,7.09
2023-04-16T02:51:09.548Z,7.10
2023-04-16T02:53:37.485Z,7.11
2023-04-16T02:56:05.988Z,7.13
2023-04-16T02:58:33.783Z,7.13
2023-04-16T03:01:01.965Z,7.07
2023-04-16T03:03:29.919Z,7.05
2023-04-16T03:05:57.665Z,7.08
2023-04-16T03:08:25.925Z,7.13
2023-04-16T03:10:54.112Z,7.19
2023-04-16T03:13:21.859Z,7.25
2023-04-16T03:15:50.101Z,7.28
2023-04-16T03:18:17.950Z,7.27
2023-04-16T03:20:45.849Z,7.24
2023-04-16T03:23:13.669Z,7.19
2023-04-16T03:25:41.629Z,7.15
2023-04-16T03:28:09.936Z,7.13
2023-04-16T03:30:38.982Z,7.14
2023-04-16T03:33:07.108Z,7.13
2023-04-16T03:35:36.018Z,7.09
2023-04-16T03:38:04.160Z,7.08
2023-04-16T03:40:32.212Z,7.08
2023-04-16T03:43:00.495Z,7.08
2023-04-16T03:45:29.660Z,7.07
2023-04-16T03:47:57.815Z,7.07
2023-04-16T03:50:26.613Z,7.06
2023-04-16T03:52:54.537Z,7.03
2023-04-16T03:55:22.308Z,7.02
2023-04-16T03:57:50.142Z,6.98
2023-04-16T04:00:18.505Z,6.90
2023-04-16T04:02:56.188Z,6.86
2023-04-16T04:05:24.690Z,6.86
2023-04-16T04:07:52.812Z,6.85
2023-04-16T04:10:20.576Z,6.88
2023-04-16T04:12:48.361Z,6.90
2023-04-16T04:15:16.359Z,6.87
2023-04-16T04:17:44.265Z,6.91
2023-04-16T04:20:12.509Z,6.93
2023-04-16T04:22:43.454Z,6.98
2023-04-16T04:25:12.831Z,6.98
2023-04-16T04:27:40.851Z,6.91
2023-04-16T04:30:09.855Z,6.84
2023-04-16T04:32:38.039Z,6.84
2023-04-16T04:35:06.643Z,6.91
2023-04-16T04:37:34.933Z,6.85
2023-04-16T04:40:09.682Z,6.77
2023-04-16T04:42:38.104Z,6.74
2023-04-16T04:45:06.867Z,6.71
2023-04-16T04:47:35.160Z,6.67
2023-04-16T04:50:02.888Z,6.72
2023-04-16T04:52:31.281Z,6.80
2023-04-16T04:54:59.026Z,6.84
2023-04-16T04:57:26.772Z,6.85
2023-04-16T04:59:55.467Z,6.87
2023-04-16T05:02:23.859Z,6.89
2023-04-16T05:04:51.726Z,6.99
2023-04-16T05:07:19.675Z,7.13
2023-04-16T05:09:47.426Z,7.30
2023-04-16T05:12:15.248Z,7.41
2023-04-16T05:14:43.101Z,7.52
2023-04-16T05:17:11.066Z,7.60
2023-04-16T05:19:38.823Z,7.70
2023-04-16T05:22:06.740Z,7.73
2023-04-16T05:24:34.651Z,7.68
2023-04-16T05:27:02.398Z,7.66
2023-04-16T05:29:30.113Z,7.57
2023-04-16T05:31:58.065Z,7.58
2023-04-16T05:34:26.293Z,7.63
2023-04-16T05:36:54.277Z,7.70
2023-04-16T05:39:22.423Z,7.74
2023-04-16T05:41:50.365Z,7.76
2023-04-16T05:44:18.265Z,7.79
2023-04-16T05:46:46.299Z,7.86
2023-04-16T05:49:14.387Z,7.79
2023-04-16T05:51:42.361Z,7.73
2023-04-16T05:54:10.417Z,7.74
2023-04-16T05:56:38.603Z,7.74
2023-04-16T05:59:06.556Z,7.65
2023-04-16T06:01:34.514Z,7.50
2023-04-16T06:04:02.624Z,7.38
2023-04-16T06:06:30.861Z,7.28
2023-04-16T06:08:58.956Z,7.32
2023-04-16T06:11:27.624Z,7.35
2023-04-16T06:13:55.535Z,7.50
2023-04-16T06:16:23.527Z,7.68
2023-04-16T06:18:51.366Z,7.79
2023-04-16T06:21:19.291Z,7.90
2023-04-16T06:23:47.774Z,8.05
2023-04-16T06:26:16.061Z,8.16
2023-04-16T06:28:44.059Z,8.25
2023-04-16T06:31:12.023Z,8.37
2023-04-16T06:33:39.970Z,8.45
2023-04-16T06:36:07.772Z,8.56
2023-04-16T06:38:36.357Z,8.78
2023-04-16T06:41:04.594Z,9.05
2023-04-16T06:43:33.904Z,9.26
2023-04-16T06:46:01.742Z,9.47
2023-04-16T06:48:30.069Z,9.66
2023-04-16T06:50:57.978Z,9.83
2023-04-16T06:53:26.127Z,9.84
2023-04-16T06:55:54.233Z,9.89
2023-04-16T06:58:22.496Z,9.97
2023-04-16T07:00:50.513Z,10.05
2023-04-16T07:03:18.923Z,10.01
2023-04-16T07:05:47.189Z,10.04
2023-04-16T07:08:15.602Z,10.07
2023-04-16T07:10:43.983Z,10.04
2023-04-16T07:13:11.779Z,9.99
2023-04-16T07:15:39.883Z,9.94
2023-04-16T07:18:07.731Z,9.84
2023-04-16T07:20:36.513Z,9.77
2023-04-16T07:23:07.331Z,9.82
2023-04-16T07:25:35.213Z,9.96
2023-04-16T07:28:03.942Z,9.97
2023-04-16T07:30:34.776Z,9.87
2023-04-16T07:33:06.134Z,9.77
2023-04-16T07:35:34.211Z,9.70
2023-04-16T07:38:02.156Z,9.77
2023-04-16T07:40:30.069Z,9.89
2023-04-16T07:42:57.966Z,10.04
2023-04-16T07:45:25.953Z,10.18
2023-04-16T07:47:54.065Z,10.28
2023-04-16T07:50:22.731Z,10.28
2023-04-16T07:52:50.828Z,10.30
2023-04-16T07:55:18.719Z,10.41
2023-04-16T07:57:46.615Z,10.58
2023-04-16T13:02:56.264Z,23.65
2023-04-16T13:05:23.196Z,23.99
2023-04-16T13:07:49.670Z,24.16
2023-04-16T13:10:16.000Z,24.20
2023-04-16T13:12:42.398Z,23.95
2023-04-16T13:15:09.866Z,24.05
2023-04-16T13:17:36.432Z,24.21
2023-04-16T13:20:03.079Z,24.50
2023-04-16T13:22:29.824Z,24.76
2023-04-16T13:24:56.533Z,25.01
2023-04-16T13:27:23.191Z,25.06
2023-04-16T13:29:49.541Z,25.12
2023-04-16T13:32:16.663Z,25.24
2023-04-16T13:34:43.093Z,25.47
2023-04-16T13:37:09.555Z,25.46
2023-04-16T13:39:35.955Z,25.57
2023-04-16T13:42:02.320Z,25.93
2023-04-16T13:44:28.988Z,26.09
2023-04-16T13:46:56.117Z,26.20
2023-04-16T13:49:22.804Z,26.57
2023-04-16T13:51:49.206Z,26.99
2023-04-16T13:54:15.523Z,27.35
2023-04-16T13:56:41.886Z,27.70
2023-04-16T13:59:08.652Z,28.16
2023-04-16T14:01:35.395Z,28.36
2023-04-16T14:04:05.713Z,28.54
2023-04-16T14:06:33.446Z,28.54
2023-04-16T14:09:00.587Z,28.30
2023-04-16T14:11:27.091Z,28.37
2023-04-16T14:13:53.540Z,28.37
2023-04-16T14:16:20.223Z,28.53
2023-04-16T14:18:46.853Z,28.65
2023-04-16T14:21:13.206Z,28.77
2023-04-16T14:23:39.808Z,29.05
2023-04-16T14:26:06.247Z,29.24
2023-04-16T14:28:32.805Z,29.34
2023-04-16T14:30:59.134Z,29.61
2023-04-16T14:33:25.712Z,29.82
2023-04-16T14:35:52.236Z,29.67
2023-04-16T14:38:18.602Z,29.64
2023-04-16T14:40:45.041Z,29.93
2023-04-16T14:43:11.451Z,30.48
2023-04-16T14:45:38.331Z,30.78
2023-04-16T14:48:05.628Z,30.92
2023-04-16T14:50:37.173Z,30.05
2023-04-16T14:53:04.488Z,29.38
2023-04-16T14:55:31.530Z,29.10
2023-04-16T14:57:58.984Z,28.32
2023-04-16T15:00:25.606Z,29.31
2023-04-16T15:02:53.079Z,30.63
2023-04-16T15:05:19.732Z,31.04
2023-04-16T15:07:46.749Z,31.34
2023-04-16T15:10:13.518Z,31.98
2023-04-16T15:12:40.411Z,32.62
2023-04-16T15:15:07.856Z,32.17
2023-04-16T15:17:34.418Z,31.22
2023-04-16T15:20:00.984Z,30.26
2023-04-16T15:22:27.432Z,29.47
2023-04-16T15:24:53.818Z,28.80
2023-04-16T15:27:20.386Z,27.96
2023-04-16T15:29:48.773Z,26.86
2023-04-16T15:32:15.451Z,25.63
2023-04-16T15:34:42.817Z,24.84
2023-04-16T15:37:09.646Z,24.06
2023-04-16T15:39:35.998Z,23.92
2023-04-16T15:42:06.513Z,24.75
2023-04-16T15:44:34.156Z,24.67
2023-04-16T15:47:00.652Z,24.78
2023-04-16T15:49:27.093Z,24.39
2023-04-16T15:51:53.805Z,23.79
2023-04-16T15:54:21.407Z,24.77
2023-04-16T15:56:47.927Z,26.76
2023-04-16T15:59:14.319Z,28.16
2023-04-16T16:01:40.975Z,29.14
2023-04-16T16:04:08.321Z,30.10
2023-04-16T16:06:35.229Z,31.17
2023-04-16T16:09:01.975Z,32.13
2023-04-16T16:11:28.522Z,32.80
2023-04-16T16:13:54.863Z,33.35
2023-04-16T16:16:21.333Z,33.72
2023-04-16T16:18:48.149Z,33.91
2023-04-16T16:21:14.618Z,34.24
2023-04-16T16:23:41.346Z,34.38
2023-04-16T16:26:08.642Z,34.41
2023-04-16T16:28:37.153Z,34.31
2023-04-16T16:31:05.186Z,32.82
2023-04-16T16:33:31.560Z,30.78
2023-04-16T16:35:58.166Z,29.06
2023-04-16T16:38:25.239Z,27.27
2023-04-16T16:40:51.750Z,25.66
2023-04-16T16:43:18.144Z,24.44
2023-04-16T16:45:44.528Z,23.53
2023-04-16T16:48:10.984Z,22.72
2023-04-16T16:50:37.357Z,22.02
2023-04-16T16:53:03.827Z,21.32
2023-04-16T16:55:30.714Z,20.68
2023-04-16T16:57:58.286Z,20.18
2023-04-16T17:00:24.880Z,19.61
2023-04-16T17:02:51.595Z,19.15
2023-04-16T17:05:18.151Z,18.83
2023-04-16T17:07:45.098Z,18.52
2023-04-16T17:10:15.166Z,18.05
2023-04-16T17:12:41.949Z,17.44
2023-04-16T17:15:09.063Z,16.93
2023-04-16T17:17:35.784Z,16.53
2023-04-16T17:20:08.041Z,16.22
2023-04-16T17:22:35.285Z,15.89
2023-04-16T17:25:01.749Z,15.57
2023-04-16T17:27:28.789Z,15.34
2023-04-16T17:29:59.471Z,15.23
2023-04-16T17:32:26.211Z,15.16
2023-04-16T17:34:56.774Z,15.09
2023-04-16T17:37:23.331Z,14.91
2023-04-16T17:39:50.813Z,14.73
2023-04-16T17:42:17.345Z,14.60
2023-04-16T17:44:43.990Z,14.52
2023-04-16T17:47:11.156Z,14.41
2023-04-16T17:49:37.563Z,14.31
2023-04-16T17:52:04.420Z,14.23
2023-04-16T17:54:32.084Z,14.18
2023-04-16T17:56:58.698Z,14.12
2023-04-16T17:59:25.349Z,14.09
2023-04-16T18:01:51.975Z,14.05
2023-04-16T18:04:19.158Z,14.05
2023-04-16T18:06:45.995Z,14.06
2023-04-16T18:09:13.565Z,14.06
2023-04-16T18:11:39.979Z,14.05
2023-04-16T18:14:09.127Z,13.96
2023-04-16T18:16:35.616Z,13.77
2023-04-16T18:19:02.016Z,13.66
2023-04-16T18:21:29.908Z,13.61
2023-04-16T18:23:57.013Z,13.58
2023-04-16T18:26:25.395Z,13.57
2023-04-16T18:28:52.758Z,13.54
2023-04-16T18:31:21.373Z,13.55
2023-04-16T18:33:56.440Z,13.53
2023-04-16T18:36:23.968Z,13.57
2023-04-16T18:39:01.014Z,13.59
2023-04-16T18:41:29.197Z,13.56
2023-04-16T18:43:56.096Z,13.50
2023-04-16T18:46:22.552Z,13.41
2023-04-16T18:48:49.135Z,13.35
2023-04-16T18:51:16.283Z,13.32
2023-04-16T18:53:44.689Z,13.27
2023-04-16T18:56:11.333Z,13.24
2023-04-16T18:58:38.153Z,13.26
2023-04-16T19:01:09.918Z,13.29
2023-04-16T19:03:36.660Z,13.31
2023-04-16T19:06:03.985Z,13.31
2023-04-16T19:08:30.387Z,13.24
2023-04-16T19:10:57.013Z,13.20
2023-04-16T19:13:27.040Z,13.09
2023-04-16T19:15:59.036Z,13.02
2023-04-16T19:18:25.929Z,12.97
2023-04-16T19:20:58.795Z,12.96
2023-04-16T19:23:25.269Z,12.95
2023-04-16T19:25:51.700Z,12.98
2023-04-16T19:28:18.402Z,13.02
2023-04-16T19:30:45.976Z,13.07
2023-04-16T19:33:12.773Z,13.08
2023-04-16T19:35:42.218Z,13.04
2023-04-16T19:38:10.755Z,12.99
2023-04-16T19:40:37.714Z,12.91
2023-04-16T19:43:04.791Z,12.90
2023-04-16T19:45:31.377Z,12.92
2023-04-16T19:47:58.348Z,12.97
2023-04-16T19:50:24.964Z,12.95
2023-04-16T19:52:51.334Z,12.86
2023-04-16T19:55:18.394Z,12.78
2023-04-16T19:57:47.298Z,12.73
2023-04-16T20:00:14.290Z,12.71
2023-04-16T20:02:41.299Z,12.70
2023-04-16T20:05:11.721Z,12.71
2023-04-16T20:07:38.257Z,12.68
2023-04-16T20:10:05.088Z,12.64
2023-04-16T20:12:31.479Z,12.56
2023-04-16T20:14:58.146Z,12.48
2023-04-16T20:17:25.277Z,12.49
2023-04-16T20:19:51.639Z,12.51
2023-04-16T20:22:18.279Z,12.47
2023-04-16T20:24:47.772Z,12.42
2023-04-16T20:27:16.192Z,12.37
2023-04-16T20:29:42.499Z,12.27
2023-04-16T20:32:09.234Z,12.17
2023-04-16T20:34:37.337Z,12.08
2023-04-16T20:37:04.085Z,11.99
2023-04-16T20:39:33.523Z,11.90
2023-04-16T20:42:00.297Z,11.81
2023-04-16T20:44:32.473Z,11.76
2023-04-16T20:46:59.053Z,11.71
2023-04-16T20:49:25.409Z,11.61
2023-04-16T20:51:51.759Z,11.63
2023-04-16T20:54:18.264Z,11.61
2023-04-16T20:56:46.993Z,11.61
2023-04-16T20:59:13.917Z,11.67
2023-04-16T21:01:40.393Z,11.71
2023-04-16T21:04:07.197Z,11.73
2023-04-16T21:06:37.626Z,11.78
2023-04-16T21:09:05.267Z,11.88
2023-04-16T21:11:33.670Z,11.98
2023-04-16T21:14:00.559Z,12.06
2023-04-16T21:16:27.092Z,12.07
2023-04-16T21:18:54.915Z,12.05
2023-04-16T21:21:21.675Z,12.06
2023-04-16T21:23:48.508Z,12.11
2023-04-16T21:26:16.264Z,12.16
2023-04-16T21:28:42.619Z,12.21
2023-04-16T21:31:09.049Z,12.23
2023-04-16T21:33:35.507Z,12.25
2023-04-16T21:36:02.009Z,12.23
2023-04-16T21:38:28.383Z,12.22
2023-04-16T21:40:55.169Z,12.21
2023-04-16T21:43:26.372Z,12.24
2023-04-16T21:45:52.905Z,12.28
2023-04-16T21:48:20.035Z,12.31
2023-04-16T21:50:46.550Z,12.38
2023-04-16T21:53:12.858Z,12.39
2023-04-16T21:55:39.973Z,12.43
2023-04-16T21:58:06.444Z,12.41
2023-04-16T22:00:33.129Z,12.34
2023-04-16T22:02:59.661Z,12.29
2023-04-16T22:05:26.230Z,12.23
2023-04-16T22:07:52.628Z,12.21
2023-04-16T22:10:19.113Z,12.21
2023-04-16T22:12:45.845Z,12.23
2023-04-16T22:15:13.031Z,12.25
2023-04-16T22:17:40.140Z,12.24
2023-04-16T22:20:12.520Z,12.18
2023-04-16T22:22:39.961Z,12.09
2023-04-16T22:25:06.918Z,12.05
2023-04-16T22:27:33.878Z,12.06
2023-04-16T22:30:00.998Z,11.97
2023-04-16T22:32:27.525Z,11.86
2023-04-16T22:34:54.017Z,11.83
2023-04-16T22:37:20.319Z,11.83
2023-04-16T22:39:46.780Z,11.76
2023-04-16T22:42:13.131Z,11.72
2023-04-16T22:44:39.780Z,11.64
2023-04-16T22:47:06.612Z,11.53
2023-04-16T22:49:33.404Z,11.36
2023-04-16T22:52:00.644Z,11.24
2023-04-16T22:54:28.491Z,11.20
2023-04-16T22:56:56.032Z,11.25
2023-04-16T22:59:22.592Z,11.28
2023-04-16T23:01:49.503Z,11.31
2023-04-16T23:04:15.946Z,11.30
2023-04-16T23:06:42.542Z,11.27
2023-04-16T23:09:09.581Z,11.26
2023-04-16T23:11:36.105Z,11.22
2023-04-16T23:14:03.793Z,11.22
2023-04-16T23:16:30.602Z,11.26
2023-04-16T23:18:56.938Z,11.33
2023-04-16T23:21:23.363Z,11.40
2023-04-16T23:23:49.930Z,11.45
2023-04-16T23:26:16.622Z,11.49
2023-04-16T23:28:42.954Z,11.46
2023-04-16T23:31:09.331Z,11.43
2023-04-16T23:33:35.986Z,11.37
2023-04-16T23:36:02.396Z,11.35
2023-04-16T23:38:29.219Z,11.34
2023-04-16T23:40:55.572Z,11.34
2023-04-16T23:43:22.595Z,11.31
2023-04-16T23:45:49.702Z,11.19
2023-04-16T23:48:16.192Z,11.09
2023-04-16T23:50:42.549Z,11.03
2023-04-16T23:53:08.987Z,10.94
2023-04-16T23:55:35.449Z,10.81
2023-04-16T23:58:01.913Z,10.81
